Time;durP1;ratioP1;P1;durP2;ratioP2;P2;SDS_P1;SDS_P2;PMS_P1;PMS_P2;Temp;Humidity;BMP_temperature;BMP_pressure;BME280_temperature;BME280_humidity;BME280_pressure;Samples;Min_cycle;Max_cycle;Signal;HPM_P1;HPM_P2
2022/05/26 00:02:15;;;;;;;0.85;0.55;;;17.80;99.70;;;;;;7396058;19;20470;-76
2022/05/26 00:04:41;;;;;;;0.65;0.60;;;17.60;99.70;;;;;;7393183;19;20186;-78
2022/05/26 00:07:08;;;;;;;2.58;0.80;;;17.50;99.90;;;;;;7393980;19;20697;-80
2022/05/26 00:09:34;;;;;;;2.45;1.00;;;17.60;99.90;;;;;;7394635;19;20583;-77
2022/05/26 00:12:00;;;;;;;1.17;0.68;;;17.80;99.90;;;;;;7400247;19;20134;-81
2022/05/26 00:14:26;;;;;;;0.50;0.50;;;17.90;99.90;;;;;;7396572;19;20131;-77
2022/05/26 00:16:53;;;;;;;1.67;0.93;;;18.00;99.70;;;;;;7392887;19;20151;-82
2022/05/26 00:19:19;;;;;;;0.68;0.50;;;18.10;99.40;;;;;;7393288;19;20207;-83
2022/05/26 00:21:49;;;;;;;3.47;0.60;;;18.00;99.50;;;;;;7394248;19;20586;-77
2022/05/26 00:24:17;;;;;;;0.77;0.60;;;18.00;99.40;;;;;;7394775;19;20166;-78
2022/05/26 00:26:43;;;;;;;1.38;0.60;;;18.00;99.30;;;;;;7393715;19;20134;-81
2022/05/26 00:29:09;;;;;;;1.80;0.73;;;17.80;99.90;;;;;;7396632;19;20138;-76
2022/05/26 00:31:35;;;;;;;2.03;0.73;;;17.90;99.90;;;;;;7399800;19;20262;-77
2022/05/26 00:34:01;;;;;;;1.45;0.57;;;18.00;99.90;;;;;;7397486;19;20649;-82
2022/05/26 00:36:44;;;;;;;1.30;0.88;;;18.00;99.90;;;;;;7395626;19;20150;-83
2022/05/26 00:39:28;;;;;;;1.08;0.60;;;18.00;99.90;;;;;;7391866;19;20154;-77
2022/05/26 00:41:58;;;;;;;3.25;1.08;;;18.00;99.90;;;;;;7392522;19;20138;-81
2022/05/26 00:44:24;;;;;;;0.90;0.80;;;18.10;99.90;;;;;;7391589;19;20214;-77
2022/05/26 00:47:13;;;;;;;1.98;0.75;;;18.10;99.90;;;;;;7392654;19;20222;-78
2022/05/26 00:49:50;;;;;;;0.93;0.60;;;18.10;99.90;;;;;;7396273;19;20182;-83
2022/05/26 00:52:21;;;;;;;1.73;0.68;;;18.10;99.90;;;;;;7394642;19;20138;-78
2022/05/26 00:54:52;;;;;;;1.13;0.68;;;18.10;99.90;;;;;;7392369;19;20138;-83
2022/05/26 00:57:41;;;;;;;1.08;0.70;;;18.10;99.90;;;;;;7390979;19;20218;-82
2022/05/26 01:00:11;;;;;;;1.77;0.77;;;18.10;99.90;;;;;;7393664;19;20167;-81
2022/05/26 01:02:43;;;;;;;0.90;0.60;;;18.10;99.90;;;;;;7392314;19;20651;-78
2022/05/26 01:05:16;;;;;;;0.80;0.60;;;18.00;99.90;;;;;;7398243;19;20145;-77
2022/05/26 01:07:43;;;;;;;2.33;0.75;;;18.00;99.90;;;;;;7391994;19;20150;-83
2022/05/26 01:10:12;;;;;;;2.10;0.70;;;18.00;99.90;;;;;;7390854;19;20150;-83
2022/05/26 01:12:38;;;;;;;0.70;0.63;;;18.00;99.90;;;;;;7391503;19;20171;-77
2022/05/26 01:15:15;;;;;;;0.60;0.60;;;18.00;99.90;;;;;;7393993;19;20126;-76
2022/05/26 01:17:45;;;;;;;1.58;0.70;;;18.00;99.90;;;;;;7390605;19;20150;-85
2022/05/26 01:20:36;;;;;;;1.35;0.90;;;17.90;99.90;;;;;;7398121;19;20142;-81
2022/05/26 01:23:27;;;;;;;0.50;0.50;;;17.80;99.90;;;;;;7394237;19;20147;-77
2022/05/26 01:26:01;;;;;;;1.17;0.68;;;17.80;99.90;;;;;;7391382;19;20130;-78
2022/05/26 01:28:48;;;;;;;2.40;0.70;;;17.80;99.90;;;;;;7391748;19;20163;-79
2022/05/26 01:31:48;;;;;;;1.15;0.60;;;17.90;99.90;;;;;;7393563;19;20145;-78
2022/05/26 01:34:37;;;;;;;1.40;0.60;;;17.90;99.90;;;;;;7390372;19;20142;-80
2022/05/26 01:37:08;;;;;;;1.20;0.40;;;18.00;99.90;;;;;;7389938;19;20138;-77
2022/05/26 01:39:52;;;;;;;1.15;0.50;;;18.00;99.90;;;;;;7395947;19;20126;-85
2022/05/26 01:42:30;;;;;;;0.60;0.50;;;17.90;99.90;;;;;;7391336;19;20227;-77
2022/05/26 01:45:20;;;;;;;0.95;0.57;;;17.90;99.90;;;;;;7391624;19;20130;-77
2022/05/26 01:47:49;;;;;;;0.65;0.52;;;17.70;99.90;;;;;;7389500;19;20622;-78
2022/05/26 01:50:28;;;;;;;1.45;0.60;;;17.80;99.90;;;;;;7392158;19;20138;-78
2022/05/26 01:53:39;;;;;;;0.50;0.40;;;17.80;99.90;;;;;;7393206;19;20174;-84
2022/05/26 01:56:24;;;;;;;1.17;0.70;;;17.80;99.90;;;;;;7398390;19;20150;-80
2022/05/26 01:59:13;;;;;;;1.05;0.38;;;17.80;99.90;;;;;;7399011;19;20135;-84
2022/05/26 02:01:47;;;;;;;0.65;0.40;;;17.90;99.90;;;;;;7388965;19;20130;-77
2022/05/26 02:04:24;;;;;;;0.85;0.60;;;17.80;99.90;;;;;;7387657;19;20139;-84
2022/05/26 02:06:59;;;;;;;0.65;0.43;;;17.80;99.90;;;;;;7390100;19;20190;-77
2022/05/26 02:09:29;;;;;;;0.30;0.30;;;17.80;99.90;;;;;;7388773;19;20146;-78
2022/05/26 02:12:05;;;;;;;1.35;0.60;;;17.70;99.90;;;;;;7390216;19;20138;-77
2022/05/26 02:14:45;;;;;;;0.50;0.47;;;17.80;99.90;;;;;;7394363;19;20118;-77
2022/05/26 02:17:26;;;;;;;0.52;0.50;;;17.70;99.90;;;;;;7391025;19;20158;-77
2022/05/26 02:19:55;;;;;;;1.27;0.40;;;17.60;99.90;;;;;;7390200;19;20141;-77
2022/05/26 02:22:28;;;;;;;0.77;0.50;;;17.70;99.90;;;;;;7391524;19;20146;-84
2022/05/26 02:25:00;;;;;;;1.67;0.60;;;17.80;99.90;;;;;;7392396;19;20146;-78
2022/05/26 02:27:27;;;;;;;1.42;0.57;;;17.70;99.90;;;;;;7393687;19;20130;-78
2022/05/26 02:29:56;;;;;;;0.45;0.38;;;17.70;99.90;;;;;;7388147;19;20604;-78
2022/05/26 02:33:00;;;;;;;0.75;0.60;;;17.70;99.90;;;;;;7397853;19;20152;-85
2022/05/26 02:35:32;;;;;;;0.43;0.30;;;17.70;99.90;;;;;;7387810;19;20142;-84
2022/05/26 02:38:10;;;;;;;3.80;0.82;;;17.60;99.90;;;;;;7387032;19;20131;-84
2022/05/26 02:40:37;;;;;;;0.45;0.40;;;17.60;99.90;;;;;;7388219;19;20558;-85
2022/05/26 02:43:28;;;;;;;2.67;0.60;;;17.60;99.90;;;;;;7388778;19;20519;-77
2022/05/26 02:46:17;;;;;;;0.50;0.40;;;17.60;99.90;;;;;;7388695;19;20160;-83
2022/05/26 02:49:21;;;;;;;1.38;0.50;;;17.30;99.90;;;;;;7400557;19;20135;-84
2022/05/26 02:52:03;;;;;;;1.55;0.50;;;17.30;99.90;;;;;;7388112;19;20160;-77
2022/05/26 02:54:47;;;;;;;1.50;0.47;;;17.30;99.90;;;;;;7388618;19;20145;-83
2022/05/26 02:57:39;;;;;;;0.60;0.50;;;17.30;99.90;;;;;;7387873;19;20794;-78
2022/05/26 03:00:14;;;;;;;1.58;0.60;;;17.40;99.90;;;;;;7393425;19;20633;-77
2022/05/26 03:03:26;;;;;;;0.63;0.50;;;17.30;99.90;;;;;;7394802;19;20141;-83
2022/05/26 03:05:55;;;;;;;5.38;0.60;;;17.40;99.90;;;;;;7400374;19;20143;-83
2022/05/26 03:08:24;;;;;;;0.47;0.43;;;17.50;99.90;;;;;;7395411;19;20126;-78
2022/05/26 03:10:53;;;;;;;0.40;0.40;;;17.40;99.90;;;;;;7397370;19;20161;-84
2022/05/26 03:13:19;;;;;;;0.45;0.43;;;17.40;99.90;;;;;;7396052;19;20614;-86
2022/05/26 03:15:45;;;;;;;2.65;0.43;;;17.30;99.90;;;;;;7393767;19;20261;-79
2022/05/26 03:18:12;;;;;;;0.47;0.43;;;17.20;99.90;;;;;;7391980;19;20142;-83
2022/05/26 03:20:38;;;;;;;1.45;0.50;;;17.20;99.90;;;;;;7394457;19;20139;-79
2022/05/26 03:23:04;;;;;;;1.90;0.60;;;17.20;99.90;;;;;;7398186;19;20145;-78
2022/05/26 03:25:30;;;;;;;0.98;0.45;;;17.20;99.90;;;;;;7397764;19;20123;-78
2022/05/26 03:27:56;;;;;;;0.50;0.50;;;17.10;99.90;;;;;;7392738;19;20134;-78
2022/05/26 03:30:21;;;;;;;1.95;0.50;;;17.10;99.90;;;;;;7396606;19;20467;-80
2022/05/26 03:32:47;;;;;;;1.20;0.60;;;17.20;99.90;;;;;;7393436;19;20586;-78
2022/05/26 03:40:56;;;;;;;0.85;0.60;;;17.00;99.90;;;;;;7399549;19;20126;-77
2022/05/26 03:43:32;;;;;;;1.00;0.57;;;16.80;99.90;;;;;;7394686;19;20221;-83
2022/05/26 03:45:59;;;;;;;0.90;0.50;;;16.80;99.90;;;;;;7396415;19;20142;-89
2022/05/26 03:48:26;;;;;;;0.95;0.60;;;16.40;99.90;;;;;;7394280;19;20143;-77
2022/05/26 03:50:52;;;;;;;2.00;0.50;;;16.30;99.90;;;;;;7393743;19;20221;-77
2022/05/26 03:53:18;;;;;;;1.02;0.50;;;16.50;99.90;;;;;;7395213;19;20657;-77
2022/05/26 03:55:43;;;;;;;0.40;0.40;;;16.80;99.90;;;;;;7398557;19;20146;-85
2022/05/26 03:58:10;;;;;;;0.50;0.50;;;16.90;99.90;;;;;;7396319;19;20147;-77
2022/05/26 04:00:36;;;;;;;1.55;0.60;;;16.90;99.90;;;;;;7394780;19;20133;-85
2022/05/26 04:03:02;;;;;;;1.65;0.70;;;17.00;99.90;;;;;;7393140;19;20130;-86
2022/05/26 04:05:30;;;;;;;0.98;0.70;;;17.00;99.90;;;;;;7398465;19;20194;-83
2022/05/26 04:07:57;;;;;;;0.43;0.40;;;17.10;99.90;;;;;;7393996;19;20160;-84
2022/05/26 04:10:23;;;;;;;1.73;0.70;;;17.10;99.90;;;;;;7398180;19;20135;-84
2022/05/26 04:12:49;;;;;;;2.10;0.65;;;17.10;99.90;;;;;;7395481;19;20146;-82
2022/05/26 04:15:16;;;;;;;1.05;0.50;;;17.10;99.90;;;;;;7392963;19;20138;-77
2022/05/26 04:17:41;;;;;;;0.45;0.43;;;17.10;99.90;;;;;;7390494;19;20647;-77
2022/05/26 04:20:12;;;;;;;1.88;0.60;;;17.10;99.90;;;;;;7392463;19;20194;-84
2022/05/26 04:22:38;;;;;;;2.58;0.85;;;17.10;99.90;;;;;;7395082;19;20159;-84
2022/05/26 04:25:05;;;;;;;2.92;0.60;;;17.10;99.90;;;;;;7392027;19;20127;-77
2022/05/26 04:27:33;;;;;;;1.13;0.50;;;17.00;99.90;;;;;;7396143;19;20147;-83
2022/05/26 04:30:01;;;;;;;0.63;0.50;;;17.10;99.90;;;;;;7398191;19;20150;-84
2022/05/26 04:32:27;;;;;;;0.77;0.40;;;17.10;99.90;;;;;;7391738;19;20130;-76
2022/05/26 04:34:53;;;;;;;0.63;0.52;;;17.10;99.90;;;;;;7393831;19;20227;-85
2022/05/26 04:37:21;;;;;;;0.60;0.50;;;17.10;99.90;;;;;;7390554;19;20141;-85
2022/05/26 04:39:47;;;;;;;1.25;0.57;;;17.10;99.90;;;;;;7390878;19;20213;-77
2022/05/26 04:42:13;;;;;;;3.00;0.70;;;17.10;99.90;;;;;;7392471;19;20126;-77
2022/05/26 04:44:43;;;;;;;0.52;0.40;;;17.10;99.90;;;;;;7400509;19;20142;-83
2022/05/26 04:47:09;;;;;;;0.90;0.40;;;17.20;99.90;;;;;;7394211;19;20143;-76
2022/05/26 04:49:37;;;;;;;0.95;0.65;;;17.30;99.90;;;;;;7391231;19;20147;-77
2022/05/26 04:52:08;;;;;;;0.90;0.50;;;17.10;99.90;;;;;;7390865;19;20205;-77
2022/05/26 04:54:36;;;;;;;1.45;0.50;;;17.10;99.90;;;;;;7392854;19;20126;-77
2022/05/26 04:57:03;;;;;;;1.27;0.40;;;17.10;99.90;;;;;;7389714;19;20142;-77
2022/05/26 04:59:30;;;;;;;0.68;0.60;;;17.00;99.90;;;;;;7395559;19;20146;-77
2022/05/26 05:01:56;;;;;;;0.40;0.40;;;17.00;99.90;;;;;;7394548;19;20133;-87
2022/05/26 05:04:24;;;;;;;2.70;0.40;;;16.90;99.90;;;;;;7393051;19;20159;-85
2022/05/26 05:06:54;;;;;;;0.60;0.40;;;17.00;99.90;;;;;;7391197;19;20497;-77
2022/05/26 05:09:21;;;;;;;0.30;0.30;;;16.90;99.90;;;;;;7393318;19;20216;-85
2022/05/26 05:11:48;;;;;;;0.50;0.32;;;17.00;99.90;;;;;;7390912;19;20130;-85
2022/05/26 05:14:14;;;;;;;1.23;0.60;;;16.90;99.90;;;;;;7390129;19;20153;-87
2022/05/26 05:16:42;;;;;;;0.90;0.50;;;17.10;99.90;;;;;;7393074;19;20159;-83
2022/05/26 05:19:09;;;;;;;1.15;0.60;;;17.10;99.90;;;;;;7392121;19;20134;-84
2022/05/26 05:21:46;;;;;;;2.10;0.68;;;17.00;99.90;;;;;;7388907;19;20123;-86
2022/05/26 05:24:18;;;;;;;3.17;0.68;;;17.20;99.90;;;;;;7390312;19;20146;-78
2022/05/26 05:26:50;;;;;;;2.42;0.73;;;17.40;99.90;;;;;;7389973;19;20206;-78
2022/05/26 05:29:19;;;;;;;1.95;0.75;;;17.30;99.90;;;;;;7395299;19;20135;-77
2022/05/26 05:31:51;;;;;;;2.88;0.68;;;17.40;99.90;;;;;;7396173;19;20143;-77
2022/05/26 05:34:23;;;;;;;1.23;0.50;;;17.50;99.90;;;;;;7390143;19;20149;-77
2022/05/26 05:36:49;;;;;;;0.77;0.47;;;17.50;99.90;;;;;;7390125;19;20142;-78
2022/05/26 05:39:15;;;;;;;1.02;0.52;;;17.40;99.90;;;;;;7394362;19;20142;-87
2022/05/26 05:41:41;;;;;;;0.40;0.40;;;17.30;99.90;;;;;;7393213;19;20153;-84
2022/05/26 05:44:07;;;;;;;0.63;0.50;;;17.30;99.90;;;;;;7391197;19;20142;-78
2022/05/26 05:46:53;;;;;;;0.60;0.32;;;17.30;99.90;;;;;;7393344;19;20517;-77
2022/05/26 05:49:27;;;;;;;0.77;0.52;;;17.10;99.90;;;;;;7389320;19;20234;-75
2022/05/26 05:51:55;;;;;;;1.88;0.65;;;17.30;99.90;;;;;;7392473;19;20201;-77
2022/05/26 05:54:22;;;;;;;1.38;0.50;;;17.50;99.90;;;;;;7392326;19;20138;-75
2022/05/26 05:56:48;;;;;;;0.47;0.30;;;17.60;99.90;;;;;;7390981;19;20141;-75
2022/05/26 05:59:14;;;;;;;1.60;0.40;;;17.50;99.90;;;;;;7390484;19;20127;-79
2022/05/26 06:01:40;;;;;;;1.88;0.57;;;17.50;99.90;;;;;;7393715;19;20134;-75
2022/05/26 06:04:06;;;;;;;3.15;0.60;;;17.90;99.90;;;;;;7387973;19;20161;-75
2022/05/26 06:06:40;;;;;;;1.15;0.47;;;18.20;99.90;;;;;;7392040;19;20142;-78
2022/05/26 06:09:07;;;;;;;0.80;0.40;;;18.00;99.90;;;;;;7391190;19;20164;-76
2022/05/26 06:11:33;;;;;;;0.40;0.40;;;17.90;99.90;;;;;;7390833;19;20138;-73
2022/05/26 06:14:00;;;;;;;0.80;0.55;;;18.00;99.90;;;;;;7389588;19;20395;-75
2022/05/26 06:16:28;;;;;;;1.48;0.52;;;18.10;99.90;;;;;;7388496;19;20229;-76
2022/05/26 06:18:54;;;;;;;0.43;0.40;;;18.00;99.90;;;;;;7390608;19;20154;-74
2022/05/26 06:21:20;;;;;;;2.30;0.38;;;18.20;99.90;;;;;;7386878;19;20165;-74
2022/05/26 06:23:46;;;;;;;0.80;0.60;;;18.10;99.90;;;;;;7390721;19;20125;-74
2022/05/26 06:26:12;;;;;;;0.85;0.47;;;18.10;99.90;;;;;;7388259;19;20151;-75
2022/05/26 06:31:23;;;;;;;1.02;0.40;;;18.10;99.90;;;;;;7387290;19;20134;-75
2022/05/26 06:39:18;;;;;;;0.40;0.32;;;17.90;99.90;;;;;;7398235;19;20508;-75
2022/05/26 06:44:28;;;;;;;1.60;0.57;;;17.90;99.90;;;;;;7397908;19;20495;-78
2022/05/26 06:46:54;;;;;;;0.88;0.57;;;18.00;99.90;;;;;;7397995;19;20150;-78
2022/05/26 06:49:20;;;;;;;1.35;0.40;;;18.10;99.90;;;;;;7401362;19;20146;-78
2022/05/26 06:51:46;;;;;;;1.20;0.60;;;17.80;99.90;;;;;;7398061;19;20155;-75
2022/05/26 06:54:12;;;;;;;0.95;0.30;;;18.00;99.90;;;;;;7397333;19;20138;-77
2022/05/26 06:56:38;;;;;;;1.55;0.50;;;18.20;99.90;;;;;;7395761;19;20138;-77
2022/05/26 06:59:05;;;;;;;2.30;0.50;;;18.30;99.90;;;;;;7395216;19;20150;-79
2022/05/26 07:01:30;;;;;;;3.28;0.75;;;18.40;99.90;;;;;;7397651;19;20712;-76
2022/05/26 07:03:56;;;;;;;1.17;0.40;;;18.50;99.90;;;;;;7397471;19;20146;-76
2022/05/26 07:06:25;;;;;;;0.70;0.60;;;18.50;99.90;;;;;;7398185;19;20142;-77
2022/05/26 07:08:51;;;;;;;0.82;0.45;;;18.60;99.90;;;;;;7396232;19;20157;-74
2022/05/26 07:11:17;;;;;;;0.82;0.50;;;18.80;99.90;;;;;;7397305;19;20138;-75
2022/05/26 07:13:43;;;;;;;0.40;0.30;;;18.50;99.90;;;;;;7394828;19;20764;-78
2022/05/26 07:16:10;;;;;;;4.35;0.73;;;18.80;99.90;;;;;;7398476;19;20487;-76
2022/05/26 07:18:37;;;;;;;0.70;0.50;;;19.20;99.90;;;;;;7392694;19;20151;-77
2022/05/26 07:21:04;;;;;;;1.08;0.50;;;19.80;99.90;;;;;;7397078;19;20170;-77
2022/05/26 07:23:30;;;;;;;0.65;0.45;;;20.40;99.90;;;;;;7396724;19;20146;-76
2022/05/26 07:25:59;;;;;;;1.50;0.60;;;20.70;99.60;;;;;;7396680;19;20555;-77
2022/05/26 07:28:25;;;;;;;2.85;0.50;;;20.80;99.00;;;;;;7395575;19;20545;-78
2022/05/26 07:30:53;;;;;;;1.17;0.50;;;20.20;99.10;;;;;;7396413;19;20147;-77
2022/05/26 07:33:20;;;;;;;0.50;0.50;;;20.00;99.40;;;;;;7397749;19;20135;-76
2022/05/26 07:35:46;;;;;;;0.57;0.50;;;19.70;99.30;;;;;;7395151;19;20176;-76
2022/05/26 07:41:16;;;;;;;1.27;0.43;;;19.60;99.30;;;;;;7392851;19;20153;-77
2022/05/26 07:43:48;;;;;;;1.60;0.57;;;19.50;99.80;;;;;;7391863;19;20143;-77
2022/05/26 07:46:16;;;;;;;0.88;0.40;;;19.60;99.70;;;;;;7396844;19;20142;-78
2022/05/26 07:48:42;;;;;;;1.15;0.32;;;19.80;99.70;;;;;;7401640;19;20139;-77
2022/05/26 07:51:07;;;;;;;1.25;0.50;;;19.70;99.40;;;;;;7397228;19;20143;-78
2022/05/26 07:53:33;;;;;;;1.42;0.50;;;19.90;99.30;;;;;;7396462;19;20165;-77
2022/05/26 07:56:01;;;;;;;2.13;0.40;;;20.00;99.20;;;;;;7394851;19;20151;-77
2022/05/26 07:58:28;;;;;;;0.40;0.40;;;20.10;98.40;;;;;;7394229;19;20138;-78
2022/05/26 08:00:54;;;;;;;1.17;0.68;;;20.10;98.40;;;;;;7392590;19;20157;-76
2022/05/26 08:03:21;;;;;;;0.73;0.40;;;20.10;99.00;;;;;;7394582;19;20166;-76
2022/05/26 08:05:47;;;;;;;1.42;0.35;;;20.30;98.60;;;;;;7398184;19;20521;-77
2022/05/26 08:08:14;;;;;;;0.95;0.40;;;20.10;98.90;;;;;;7394163;19;20139;-77
2022/05/26 08:10:40;;;;;;;0.40;0.35;;;20.10;99.20;;;;;;7395162;19;20139;-77
2022/05/26 08:13:06;;;;;;;0.38;0.30;;;20.30;98.60;;;;;;7392736;19;20624;-78
2022/05/26 08:15:33;;;;;;;0.82;0.40;;;20.40;98.50;;;;;;7393070;19;20150;-80
2022/05/26 08:17:59;;;;;;;2.03;0.40;;;20.40;98.20;;;;;;7393606;19;20134;-78
2022/05/26 08:20:25;;;;;;;2.30;0.40;;;20.20;98.40;;;;;;7397167;19;20158;-77
2022/05/26 08:22:51;;;;;;;0.88;0.38;;;20.00;98.90;;;;;;7392998;19;20138;-78
2022/05/26 08:25:17;;;;;;;0.55;0.40;;;20.10;98.60;;;;;;7391585;19;20135;-78
2022/05/26 08:27:43;;;;;;;2.92;0.90;;;20.00;98.80;;;;;;7391282;19;20142;-77
2022/05/26 08:30:09;;;;;;;1.33;0.40;;;20.00;98.60;;;;;;7390708;19;20138;-77
2022/05/26 08:32:35;;;;;;;0.57;0.40;;;19.90;98.80;;;;;;7393612;19;20142;-76
2022/05/26 08:35:07;;;;;;;1.50;0.60;;;19.70;99.30;;;;;;7396934;19;20493;-77
2022/05/26 08:37:33;;;;;;;1.85;0.50;;;19.70;99.40;;;;;;7394016;19;20149;-77
2022/05/26 08:39:59;;;;;;;1.45;0.35;;;19.70;99.70;;;;;;7391595;19;20153;-78
2022/05/26 08:42:31;;;;;;;0.88;0.40;;;19.50;99.50;;;;;;7393375;19;20127;-76
2022/05/26 08:45:12;;;;;;;1.00;0.52;;;19.40;99.60;;;;;;7395715;19;20158;-76
2022/05/26 08:47:46;;;;;;;1.33;0.52;;;19.30;99.90;;;;;;7391388;19;20499;-76
2022/05/26 08:50:27;;;;;;;2.75;0.70;;;19.70;99.70;;;;;;7393744;19;20161;-76
2022/05/26 08:53:19;;;;;;;0.80;0.50;;;19.60;99.90;;;;;;7398733;19;20138;-76
2022/05/26 08:55:48;;;;;;;1.08;0.40;;;19.70;99.90;;;;;;7390242;19;20150;-76
2022/05/26 08:58:24;;;;;;;0.50;0.40;;;19.90;99.90;;;;;;7387410;19;20154;-76
2022/05/26 09:00:51;;;;;;;0.93;0.45;;;20.00;99.90;;;;;;7391545;19;20593;-77
2022/05/26 09:03:17;;;;;;;0.65;0.40;;;20.10;99.70;;;;;;7389583;19;20166;-76
2022/05/26 09:05:45;;;;;;;0.98;0.47;;;20.00;99.70;;;;;;7389784;19;20185;-75
2022/05/26 09:14:07;;;;;;;0.40;0.35;;;20.30;99.10;;;;;;7390428;19;20159;-76
2022/05/26 09:16:40;;;;;;;0.70;0.50;;;20.40;99.00;;;;;;7389198;19;20598;-77
2022/05/26 09:19:18;;;;;;;0.30;0.30;;;20.70;98.80;;;;;;7390376;19;20162;-77
2022/05/26 09:21:46;;;;;;;0.50;0.30;;;20.80;98.00;;;;;;7390524;19;20461;-76
2022/05/26 09:24:25;;;;;;;1.63;0.40;;;20.70;98.10;;;;;;7391955;19;20230;-76
2022/05/26 09:27:04;;;;;;;2.40;0.30;;;20.50;98.70;;;;;;7392471;19;20145;-75
2022/05/26 09:29:37;;;;;;;0.98;0.60;;;20.60;98.80;;;;;;7390185;19;20142;-76
2022/05/26 09:32:04;;;;;;;0.45;0.40;;;20.60;99.10;;;;;;7392094;19;20138;-77
2022/05/26 09:34:33;;;;;;;0.70;0.47;;;20.40;98.60;;;;;;7392623;19;20130;-76
2022/05/26 09:37:04;;;;;;;2.88;0.57;;;20.50;98.60;;;;;;7388400;19;20623;-76
2022/05/26 09:39:37;;;;;;;3.92;0.68;;;20.50;98.60;;;;;;7390505;19;20151;-77
2022/05/26 09:42:07;;;;;;;0.80;0.50;;;20.30;98.60;;;;;;7390618;19;20135;-75
2022/05/26 09:44:54;;;;;;;1.65;0.70;;;20.20;98.90;;;;;;7393058;19;20188;-76
2022/05/26 09:47:26;;;;;;;1.92;0.50;;;20.10;99.10;;;;;;7389288;19;20496;-76
2022/05/26 09:49:55;;;;;;;0.73;0.60;;;19.90;99.50;;;;;;7390757;19;20160;-76
2022/05/26 09:52:25;;;;;;;1.05;0.47;;;20.00;99.50;;;;;;7388933;19;20147;-77
2022/05/26 09:55:16;;;;;;;0.95;0.43;;;19.90;99.90;;;;;;7389322;19;20123;-75
2022/05/26 09:57:43;;;;;;;2.92;0.50;;;20.00;99.70;;;;;;7391475;19;20539;-76
2022/05/26 10:00:15;;;;;;;1.13;0.65;;;19.70;99.90;;;;;;7391536;19;20134;-76
2022/05/26 10:02:41;;;;;;;1.10;0.65;;;19.80;99.90;;;;;;7388843;19;20178;-77
2022/05/26 10:05:37;;;;;;;0.65;0.50;;;19.90;99.90;;;;;;7389093;19;20624;-76
2022/05/26 10:08:15;;;;;;;1.20;0.60;;;19.80;99.90;;;;;;7386178;19;20166;-76
2022/05/26 10:10:54;;;;;;;2.92;0.98;;;20.00;99.70;;;;;;7390078;19;20130;-75
2022/05/26 10:13:48;;;;;;;1.10;0.52;;;20.10;99.60;;;;;;7388236;19;20141;-77
2022/05/26 10:16:24;;;;;;;1.73;0.60;;;19.80;99.70;;;;;;7389278;19;20641;-76
2022/05/26 10:19:10;;;;;;;2.35;0.60;;;20.00;99.80;;;;;;7389662;19;20150;-77
2022/05/26 10:21:47;;;;;;;0.90;0.60;;;19.80;99.90;;;;;;7389672;19;20133;-77
2022/05/26 10:24:35;;;;;;;1.63;1.30;;;19.90;99.90;;;;;;7390375;19;20122;-77
2022/05/26 10:27:28;;;;;;;1.27;0.60;;;19.80;99.90;;;;;;7387708;19;20130;-77
2022/05/26 10:30:15;;;;;;;1.30;0.45;;;19.70;99.90;;;;;;7389385;19;20130;-77
2022/05/26 10:32:56;;;;;;;1.30;0.40;;;19.90;99.90;;;;;;7399334;19;20157;-76
2022/05/26 10:35:30;;;;;;;0.70;0.43;;;20.10;99.40;;;;;;7388953;19;20135;-76
2022/05/26 10:38:23;;;;;;;0.30;0.20;;;20.30;99.30;;;;;;7385059;19;20146;-77
2022/05/26 10:41:10;;;;;;;0.82;0.40;;;20.30;99.40;;;;;;7387160;19;20130;-77
2022/05/26 10:43:51;;;;;;;1.13;0.60;;;20.30;99.60;;;;;;7389250;19;20198;-77
2022/05/26 10:46:19;;;;;;;0.70;0.50;;;20.30;99.30;;;;;;7392052;19;20748;-76
2022/05/26 10:49:04;;;;;;;0.90;0.63;;;20.20;99.40;;;;;;7389707;19;20127;-76
2022/05/26 10:51:37;;;;;;;0.68;0.50;;;20.20;99.80;;;;;;7387028;19;20193;-76
2022/05/26 10:54:15;;;;;;;1.27;0.68;;;20.30;99.20;;;;;;7388267;19;20151;-77
2022/05/26 10:57:14;;;;;;;1.50;1.05;;;20.10;99.50;;;;;;7388333;19;20143;-77
2022/05/26 11:00:04;;;;;;;2.15;0.70;;;20.10;99.50;;;;;;7386059;19;20163;-77
2022/05/26 11:03:11;;;;;;;1.13;0.63;;;20.00;99.90;;;;;;7387875;19;20237;-76
2022/05/26 11:05:48;;;;;;;0.85;0.60;;;19.90;99.80;;;;;;7393117;19;20130;-76
2022/05/26 11:08:38;;;;;;;0.60;0.50;;;19.90;99.60;;;;;;7386438;19;20131;-76
2022/05/26 11:11:51;;;;;;;0.93;0.50;;;19.80;99.80;;;;;;7388312;19;20146;-76
2022/05/26 11:17:38;;;;;;;1.15;0.45;;;19.60;99.70;;;;;;7383894;19;20175;-76
2022/05/26 11:20:20;;;;;;;1.73;0.98;;;19.70;99.90;;;;;;7390657;19;20126;-77
2022/05/26 11:22:51;;;;;;;1.58;0.60;;;19.80;99.90;;;;;;7396987;19;20127;-77
2022/05/26 11:25:31;;;;;;;0.68;0.45;;;19.90;99.90;;;;;;7395663;19;20134;-76
2022/05/26 11:28:07;;;;;;;1.10;0.50;;;20.10;99.90;;;;;;7393496;19;20134;-76
2022/05/26 11:36:40;;;;;;;0.52;0.52;;;20.30;99.70;;;;;;7392353;19;20147;-76
2022/05/26 11:39:15;;;;;;;0.77;0.68;;;20.30;99.50;;;;;;7396280;19;20143;-75
2022/05/26 11:42:24;;;;;;;1.02;0.47;;;20.20;99.90;;;;;;7397846;19;20130;-76
2022/05/26 11:45:17;;;;;;;1.25;0.50;;;20.20;99.90;;;;;;7393929;19;20138;-76
2022/05/26 11:47:58;;;;;;;3.65;0.82;;;20.30;99.30;;;;;;7392989;19;20516;-76
2022/05/26 11:50:42;;;;;;;1.02;0.50;;;20.00;99.80;;;;;;7393111;19;20134;-76
2022/05/26 11:53:35;;;;;;;0.85;0.70;;;20.10;99.90;;;;;;7393140;19;20142;-76
2022/05/26 11:56:23;;;;;;;3.20;0.80;;;20.30;99.70;;;;;;7393126;19;20236;-77
2022/05/26 11:59:23;;;;;;;0.73;0.40;;;20.30;99.90;;;;;;7399758;19;20150;-77
2022/05/26 12:01:58;;;;;;;0.80;0.80;;;20.50;99.40;;;;;;7391108;19;20142;-76
2022/05/26 12:04:33;;;;;;;1.48;0.60;;;20.60;99.90;;;;;;7392531;19;20174;-76
2022/05/26 12:07:00;;;;;;;0.50;0.40;;;20.70;99.80;;;;;;7394040;19;20435;-76
2022/05/26 12:09:31;;;;;;;2.38;0.55;;;20.40;99.60;;;;;;7391859;19;20143;-76
2022/05/26 12:12:07;;;;;;;1.08;0.47;;;20.50;99.50;;;;;;7392058;19;20591;-76
2022/05/26 12:15:03;;;;;;;0.73;0.50;;;20.20;99.80;;;;;;7392561;19;20150;-76
2022/05/26 12:17:41;;;;;;;1.15;0.60;;;20.20;99.90;;;;;;7393652;19;20164;-78
2022/05/26 12:20:10;;;;;;;2.08;1.00;;;20.20;99.80;;;;;;7390962;19;20155;-76
2022/05/26 12:23:00;;;;;;;0.98;0.60;;;20.10;99.90;;;;;;7393881;19;20154;-76
2022/05/26 12:25:33;;;;;;;1.60;1.05;;;20.10;99.90;;;;;;7393332;19;20127;-77
2022/05/26 12:28:10;;;;;;;1.00;0.80;;;20.30;99.90;;;;;;7390998;19;20151;-76
2022/05/26 12:30:58;;;;;;;1.40;0.80;;;20.20;99.90;;;;;;7391493;19;20162;-77
2022/05/26 12:33:36;;;;;;;3.05;0.95;;;20.20;99.90;;;;;;7393820;19;20135;-76
2022/05/26 12:36:20;;;;;;;1.13;0.60;;;20.20;99.90;;;;;;7392236;19;20126;-77
2022/05/26 12:39:06;;;;;;;0.90;0.60;;;20.10;99.90;;;;;;7390415;19;20139;-78
2022/05/26 12:41:42;;;;;;;0.68;0.60;;;20.00;99.90;;;;;;7391704;19;20150;-76
2022/05/26 12:44:29;;;;;;;0.90;0.70;;;20.00;99.90;;;;;;7390324;19;20715;-77
2022/05/26 12:47:16;;;;;;;1.00;0.60;;;20.00;99.90;;;;;;7395388;19;20127;-77
2022/05/26 12:50:07;;;;;;;1.02;0.52;;;20.10;99.90;;;;;;7390364;19;20594;-76
2022/05/26 12:52:57;;;;;;;0.93;0.80;;;20.20;99.90;;;;;;7391178;19;20135;-77
2022/05/26 12:55:46;;;;;;;0.93;0.65;;;20.30;99.90;;;;;;7397002;19;20123;-76
2022/05/26 12:58:20;;;;;;;0.68;0.68;;;20.40;99.90;;;;;;7388772;19;20138;-76
2022/05/26 13:00:48;;;;;;;0.60;0.60;;;20.50;99.90;;;;;;7389714;19;20143;-78
2022/05/26 13:03:13;;;;;;;0.85;0.65;;;20.60;99.90;;;;;;7390087;19;20162;-77
2022/05/26 13:05:46;;;;;;;0.98;0.68;;;20.50;99.90;;;;;;7392225;19;20697;-78
2022/05/26 13:08:20;;;;;;;1.80;0.70;;;20.60;99.90;;;;;;7390513;19;20135;-77
2022/05/26 13:10:53;;;;;;;0.90;0.63;;;20.50;99.90;;;;;;7393648;19;20878;-77
2022/05/26 13:13:23;;;;;;;0.60;0.57;;;20.70;99.90;;;;;;7389563;19;20614;-77
2022/05/26 13:15:49;;;;;;;2.05;0.90;;;20.80;99.90;;;;;;7389275;19;20131;-75
2022/05/26 13:18:24;;;;;;;1.95;0.77;;;20.90;99.90;;;;;;7388202;19;20142;-76
2022/05/26 13:20:50;;;;;;;1.05;0.60;;;20.80;99.90;;;;;;7389623;19;20623;-76
2022/05/26 13:23:29;;;;;;;0.95;0.60;;;20.60;99.90;;;;;;7390091;19;20735;-77
2022/05/26 13:25:57;;;;;;;1.15;0.63;;;20.40;99.90;;;;;;7397050;19;20153;-76
2022/05/26 13:28:31;;;;;;;2.00;0.80;;;20.20;99.90;;;;;;7389440;19;20146;-76
2022/05/26 13:33:48;;;;;;;1.05;0.63;;;20.20;99.90;;;;;;7390804;19;20209;-75
2022/05/26 13:36:25;;;;;;;0.85;0.70;;;20.30;99.90;;;;;;7390285;19;20135;-77
2022/05/26 13:38:51;;;;;;;1.92;0.70;;;20.10;99.90;;;;;;7389538;19;20571;-78
2022/05/26 13:41:27;;;;;;;0.98;0.50;;;20.10;99.90;;;;;;7393593;19;20194;-77
2022/05/26 13:43:55;;;;;;;0.70;0.63;;;20.20;99.90;;;;;;7392642;19;20162;-77
2022/05/26 13:46:38;;;;;;;1.38;0.60;;;20.10;99.90;;;;;;7395737;19;20231;-76
2022/05/26 13:49:28;;;;;;;0.95;0.70;;;20.10;99.90;;;;;;7390705;19;20130;-78
2022/05/26 13:51:55;;;;;;;0.50;0.50;;;20.10;99.90;;;;;;7388990;19;20219;-76
2022/05/26 13:54:41;;;;;;;2.03;0.60;;;20.20;99.90;;;;;;7389634;19;20608;-77
2022/05/26 13:57:48;;;;;;;1.33;0.70;;;20.20;99.90;;;;;;7387373;19;20123;-76
2022/05/26 14:00:36;;;;;;;3.50;0.70;;;20.30;99.90;;;;;;7396725;19;20145;-77